Time;durP1;ratioP1;P1;durP2;ratioP2;P2;SDS_P1;SDS_P2;PMS_P1;PMS_P2;Temp;Humidity;BMP_temperature;BMP_pressure;BME280_temperature;BME280_humidity;BME280_pressure;Samples;Min_cycle;Max_cycle;Signal;HPM_P1;HPM_P2
2022/06/14 00:02:31;;;;;;;1.35;1.10;;;20.70;60.00;;;;;;5042869;28;43517;-62
2022/06/14 00:04:58;;;;;;;2.83;1.45;;;20.70;59.40;;;;;;5043618;28;44036;-62
2022/06/14 00:07:25;;;;;;;1.20;0.90;;;20.70;59.30;;;;;;5043426;28;44972;-62
2022/06/14 00:09:53;;;;;;;1.50;1.15;;;20.70;59.40;;;;;;5041946;28;43709;-62
2022/06/14 00:12:21;;;;;;;1.83;1.08;;;20.70;59.40;;;;;;5043111;28;43519;-63
2022/06/14 00:14:48;;;;;;;1.27;1.15;;;20.70;59.40;;;;;;5033587;28;43510;-63
2022/06/14 00:17:16;;;;;;;1.45;0.95;;;20.70;59.40;;;;;;5043320;28;44700;-63
2022/06/14 00:19:43;;;;;;;1.85;1.10;;;20.70;59.50;;;;;;5042024;28;43533;-62
2022/06/14 00:22:12;;;;;;;1.52;1.08;;;20.70;59.50;;;;;;5042852;28;43561;-63
2022/06/14 00:24:39;;;;;;;1.35;1.20;;;20.70;59.50;;;;;;5043305;28;43434;-62
2022/06/14 00:27:07;;;;;;;1.40;1.10;;;20.60;59.50;;;;;;5043059;28;43740;-63
2022/06/14 00:29:34;;;;;;;1.90;1.23;;;20.60;59.40;;;;;;5041957;28;43984;-63
2022/06/14 00:32:02;;;;;;;1.60;1.00;;;20.60;59.40;;;;;;5041680;28;43566;-63
2022/06/14 00:34:30;;;;;;;1.20;0.90;;;20.60;59.50;;;;;;5044192;28;43542;-62
2022/06/14 00:36:59;;;;;;;1.10;1.00;;;20.60;59.40;;;;;;5042784;28;44717;-62
2022/06/14 00:39:26;;;;;;;1.48;1.00;;;20.60;59.40;;;;;;5041941;28;43509;-62
2022/06/14 00:41:56;;;;;;;1.90;1.10;;;20.60;59.40;;;;;;5042744;28;43430;-63
2022/06/14 00:44:27;;;;;;;1.55;1.10;;;20.60;59.40;;;;;;5043823;28;43466;-62
2022/06/14 00:47:02;;;;;;;1.58;1.13;;;20.60;59.50;;;;;;5042839;28;43820;-63
2022/06/14 00:49:39;;;;;;;1.50;1.20;;;20.60;59.50;;;;;;5039322;28;43476;-62
2022/06/14 00:52:17;;;;;;;2.33;1.20;;;20.60;59.50;;;;;;5032156;28;43436;-62
2022/06/14 00:54:49;;;;;;;2.15;1.20;;;20.60;59.50;;;;;;5042855;28;43482;-63
2022/06/14 00:57:23;;;;;;;2.05;1.20;;;20.60;59.50;;;;;;5041433;28;43807;-63
2022/06/14 01:00:07;;;;;;;1.58;1.17;;;20.60;59.50;;;;;;5042638;28;43715;-62
2022/06/14 01:02:43;;;;;;;1.15;1.00;;;20.50;59.40;;;;;;5042300;28;43538;-62
2022/06/14 01:05:21;;;;;;;2.30;1.27;;;20.60;59.50;;;;;;5041942;28;43415;-63
2022/06/14 01:07:55;;;;;;;2.10;1.00;;;20.50;59.50;;;;;;5042602;28;44359;-63
2022/06/14 01:10:33;;;;;;;2.15;1.05;;;20.50;59.50;;;;;;5042460;28;43502;-63
2022/06/14 01:13:04;;;;;;;1.25;1.00;;;20.50;59.50;;;;;;5041552;28;43478;-63
2022/06/14 01:15:33;;;;;;;1.10;1.00;;;20.50;59.50;;;;;;5042786;28;43551;-63
2022/06/14 01:18:19;;;;;;;1.42;1.33;;;20.50;59.50;;;;;;5041105;28;44187;-64
2022/06/14 01:20:47;;;;;;;1.55;1.40;;;20.50;59.40;;;;;;5041609;28;43708;-63
2022/06/14 01:23:16;;;;;;;2.17;1.00;;;20.50;59.50;;;;;;5042412;28;43390;-62
2022/06/14 01:25:51;;;;;;;2.25;1.00;;;20.50;59.50;;;;;;5041869;28;43486;-63
2022/06/14 01:28:22;;;;;;;1.75;1.20;;;20.40;59.40;;;;;;5042320;28;43749;-62
2022/06/14 01:30:52;;;;;;;1.98;1.30;;;20.40;59.40;;;;;;5041600;28;43518;-63
2022/06/14 01:33:33;;;;;;;1.63;1.10;;;20.40;59.40;;;;;;5042398;28;43543;-63
2022/06/14 01:36:08;;;;;;;1.60;1.10;;;20.40;59.40;;;;;;5037176;28;43399;-63
2022/06/14 01:38:36;;;;;;;1.20;1.00;;;20.40;59.40;;;;;;5040929;28;44702;-62
2022/06/14 01:41:10;;;;;;;1.73;1.10;;;20.40;59.40;;;;;;5040116;28;44645;-63
2022/06/14 01:44:05;;;;;;;1.17;1.05;;;20.40;59.40;;;;;;5045245;28;43421;-63
2022/06/14 01:46:57;;;;;;;1.50;1.10;;;20.40;59.40;;;;;;5045300;28;43420;-63
2022/06/14 01:53:01;;;;;;;2.38;1.23;;;20.40;59.40;;;;;;5045033;28;43490;-63
2022/06/14 01:55:51;;;;;;;1.50;1.05;;;20.40;59.40;;;;;;5032104;28;43448;-63
2022/06/14 01:58:34;;;;;;;1.73;1.10;;;20.40;59.40;;;;;;5044859;28;43541;-63
2022/06/14 02:01:26;;;;;;;1.60;1.17;;;20.30;59.40;;;;;;5045036;28;43816;-63
2022/06/14 02:04:39;;;;;;;2.20;1.15;;;20.30;59.40;;;;;;5036150;28;43898;-62
2022/06/14 02:08:08;;;;;;;1.45;1.02;;;20.30;59.40;;;;;;5037289;28;43451;-63
2022/06/14 02:11:08;;;;;;;3.20;1.15;;;20.30;59.40;;;;;;4989522;28;43547;-63
2022/06/14 02:13:50;;;;;;;1.63;1.10;;;20.30;59.50;;;;;;5041451;28;43867;-63
2022/06/14 02:16:28;;;;;;;2.70;1.05;;;20.30;59.50;;;;;;5044736;28;43505;-63
2022/06/14 02:19:09;;;;;;;2.05;1.20;;;20.30;59.50;;;;;;5045058;28;43470;-63
2022/06/14 02:21:49;;;;;;;1.30;1.15;;;20.30;59.50;;;;;;5044029;28;43533;-63
2022/06/14 02:24:28;;;;;;;2.37;1.13;;;20.30;59.50;;;;;;5045034;28;43780;-62
2022/06/14 02:27:09;;;;;;;2.65;1.20;;;20.30;59.40;;;;;;5045209;28;43520;-63
2022/06/14 02:29:45;;;;;;;1.65;1.10;;;20.30;59.50;;;;;;5044243;28;43409;-62
2022/06/14 02:32:39;;;;;;;1.40;1.30;;;20.30;59.50;;;;;;5044989;28;43419;-62
2022/06/14 02:35:11;;;;;;;1.73;1.10;;;20.30;59.40;;;;;;5027910;28;43809;-63
2022/06/14 02:38:09;;;;;;;2.38;0.98;;;20.20;59.40;;;;;;5041385;28;43495;-62
2022/06/14 02:40:43;;;;;;;1.00;0.80;;;20.30;59.50;;;;;;5039177;28;43573;-62
2022/06/14 02:43:28;;;;;;;3.03;1.40;;;20.30;59.50;;;;;;5043830;28;43472;-63
2022/06/14 02:46:07;;;;;;;1.60;0.98;;;20.20;59.50;;;;;;5044936;28;44978;-63
2022/06/14 02:48:52;;;;;;;1.58;1.25;;;20.20;59.50;;;;;;5044830;28;43513;-63
2022/06/14 02:51:32;;;;;;;1.10;0.90;;;20.20;59.50;;;;;;5044084;28;43486;-63
2022/06/14 02:54:12;;;;;;;1.42;1.10;;;20.20;59.50;;;;;;5043475;28;43394;-63
2022/06/14 02:57:05;;;;;;;1.03;0.93;;;20.20;59.50;;;;;;5044034;28;44725;-63
2022/06/14 02:59:35;;;;;;;1.73;1.10;;;20.20;59.50;;;;;;5044129;28;43673;-62
2022/06/14 03:02:12;;;;;;;1.52;1.05;;;20.20;59.50;;;;;;5044301;28;43571;-63
2022/06/14 03:04:59;;;;;;;1.40;0.98;;;20.20;59.50;;;;;;5044634;28;43533;-63
2022/06/14 03:07:44;;;;;;;1.38;1.10;;;20.20;59.50;;;;;;5037598;28;43856;-63
2022/06/14 03:10:12;;;;;;;2.47;1.30;;;20.20;59.50;;;;;;5044337;28;43804;-63
2022/06/14 03:12:40;;;;;;;1.75;1.00;;;20.20;59.50;;;;;;5042980;28;43601;-63
2022/06/14 03:15:16;;;;;;;1.00;0.90;;;20.20;59.50;;;;;;5042688;28;43540;-63
2022/06/14 03:17:49;;;;;;;1.20;1.08;;;20.10;59.40;;;;;;5043507;28;45012;-63
2022/06/14 03:20:23;;;;;;;1.83;0.90;;;20.20;59.50;;;;;;5038879;28;43979;-63
2022/06/14 03:22:55;;;;;;;2.22;1.15;;;20.20;59.50;;;;;;5042671;28;43495;-63
2022/06/14 03:25:38;;;;;;;2.13;1.20;;;20.10;59.50;;;;;;5044005;28;43415;-63
2022/06/14 03:28:12;;;;;;;2.03;1.05;;;20.10;59.50;;;;;;5044102;28;45290;-63
2022/06/14 03:30:47;;;;;;;1.30;0.93;;;20.10;59.50;;;;;;5042836;28;43498;-63
2022/06/14 03:33:30;;;;;;;1.50;1.13;;;20.10;59.40;;;;;;5044222;28;43441;-63
2022/06/14 03:35:59;;;;;;;2.15;1.23;;;20.10;59.40;;;;;;5038761;28;43507;-62
2022/06/14 03:38:37;;;;;;;1.83;1.40;;;20.10;59.40;;;;;;5042564;28;44998;-62
2022/06/14 03:41:08;;;;;;;1.17;0.85;;;20.10;59.40;;;;;;5041539;28;43459;-63
2022/06/14 03:43:36;;;;;;;1.52;0.80;;;20.10;59.40;;;;;;5044026;28;43434;-63
2022/06/14 03:46:30;;;;;;;1.40;1.30;;;20.10;59.40;;;;;;5043182;28;43523;-63
2022/06/14 03:49:13;;;;;;;1.73;1.30;;;20.10;59.40;;;;;;5033062;28;45020;-63
2022/06/14 03:51:47;;;;;;;1.48;1.20;;;20.10;59.40;;;;;;5043013;28;43403;-63
2022/06/14 03:54:36;;;;;;;1.75;1.15;;;20.10;59.50;;;;;;5042613;28;43411;-63
2022/06/14 03:57:37;;;;;;;1.40;1.30;;;20.10;59.50;;;;;;5034106;28;43522;-63
2022/06/14 04:00:16;;;;;;;;;;;20.00;59.50;;;;;;5042697;28;43975;-63
2022/06/14 04:03:20;;;;;;;1.45;0.90;;;20.00;59.50;;;;;;5043275;28;43555;-63
2022/06/14 04:06:12;;;;;;;1.17;0.90;;;20.00;59.60;;;;;;5042566;28;43425;-63
2022/06/14 04:09:15;;;;;;;1.38;0.95;;;20.00;59.60;;;;;;5033326;28;43405;-63
2022/06/14 04:11:45;;;;;;;0.93;0.80;;;19.90;59.60;;;;;;5013415;28;44713;-63
2022/06/14 04:14:28;;;;;;;2.42;1.08;;;20.00;59.60;;;;;;5038850;28;43462;-63
2022/06/14 04:17:08;;;;;;;1.40;1.10;;;20.00;59.60;;;;;;5043527;28;43435;-63
2022/06/14 04:19:50;;;;;;;1.20;0.98;;;19.90;59.60;;;;;;5042039;28;43522;-63
2022/06/14 04:22:42;;;;;;;1.88;1.10;;;19.90;59.60;;;;;;5036979;28;43846;-63
2022/06/14 04:25:24;;;;;;;1.50;1.10;;;19.90;59.60;;;;;;5043073;28;44052;-62
2022/06/14 04:28:16;;;;;;;1.10;1.00;;;19.90;59.60;;;;;;5042844;28;43476;-63
2022/06/14 04:31:09;;;;;;;1.30;0.95;;;19.90;59.60;;;;;;5042872;28;43507;-63
2022/06/14 04:33:46;;;;;;;1.00;0.90;;;19.90;59.60;;;;;;5037777;28;43789;-63
2022/06/14 04:36:18;;;;;;;2.17;1.25;;;19.90;59.60;;;;;;5043059;28;43475;-63
2022/06/14 04:39:03;;;;;;;1.67;1.17;;;19.90;59.50;;;;;;5043109;28;43439;-63
2022/06/14 04:42:10;;;;;;;1.17;0.90;;;20.00;59.60;;;;;;5041736;28;43475;-64
2022/06/14 04:45:09;;;;;;;1.75;1.20;;;19.90;59.50;;;;;;5035811;28;44043;-63
2022/06/14 04:47:55;;;;;;;1.15;1.05;;;19.90;59.60;;;;;;5032690;28;43733;-63
2022/06/14 04:50:32;;;;;;;1.58;1.20;;;19.90;59.60;;;;;;5042577;28;43535;-63
2022/06/14 04:53:12;;;;;;;1.40;1.15;;;19.90;59.60;;;;;;5043281;28;43439;-63
2022/06/14 04:55:51;;;;;;;1.17;0.90;;;19.90;59.60;;;;;;5032582;28;44016;-63
2022/06/14 04:58:23;;;;;;;2.20;1.23;;;19.90;59.60;;;;;;5042643;28;44010;-63
2022/06/14 05:01:01;;;;;;;1.40;1.10;;;19.90;59.60;;;;;;5039607;28;43536;-62
2022/06/14 05:03:43;;;;;;;1.85;0.95;;;19.90;59.60;;;;;;5028413;28;43499;-63
2022/06/14 05:06:34;;;;;;;1.50;1.00;;;19.80;59.60;;;;;;5040566;28;44992;-63
2022/06/14 05:09:10;;;;;;;1.48;1.10;;;19.90;59.60;;;;;;5039906;28;43447;-63
2022/06/14 05:12:14;;;;;;;1.13;0.80;;;19.80;59.60;;;;;;5031377;28;43488;-62
2022/06/14 05:14:58;;;;;;;1.35;1.23;;;19.90;59.70;;;;;;5037927;28;43406;-62
2022/06/14 05:17:33;;;;;;;1.00;0.70;;;19.80;59.70;;;;;;5041734;28;43995;-62
2022/06/14 05:20:28;;;;;;;1.00;0.90;;;19.80;59.80;;;;;;5040914;28;43409;-62
2022/06/14 05:23:34;;;;;;;2.45;1.00;;;19.80;59.70;;;;;;5042565;28;43436;-62
2022/06/14 05:26:22;;;;;;;1.40;1.02;;;19.80;59.70;;;;;;5010928;28;43634;-62
2022/06/14 05:29:01;;;;;;;2.28;1.17;;;19.80;59.70;;;;;;5040923;28;43997;-62
2022/06/14 05:31:29;;;;;;;2.08;0.80;;;19.80;59.70;;;;;;5041934;28;43752;-63
2022/06/14 05:34:12;;;;;;;1.45;1.00;;;19.80;59.80;;;;;;5040285;28;43398;-63
2022/06/14 05:37:36;;;;;;;2.17;1.00;;;19.80;59.80;;;;;;5041969;28;43566;-63
2022/06/14 05:40:37;;;;;;;1.30;1.20;;;19.80;59.80;;;;;;4982298;28;44700;-62
2022/06/14 05:43:17;;;;;;;1.20;1.10;;;19.80;59.80;;;;;;4985778;28;43480;-62
2022/06/14 05:45:54;;;;;;;1.80;1.10;;;19.70;59.80;;;;;;5028861;28;43494;-63
2022/06/14 05:48:29;;;;;;;1.35;0.93;;;19.70;59.70;;;;;;5040069;28;43483;-63
2022/06/14 05:50:59;;;;;;;1.75;0.90;;;19.70;59.80;;;;;;5042444;28;44057;-63
2022/06/14 05:53:35;;;;;;;1.75;1.10;;;19.70;59.70;;;;;;5041611;28;43707;-62
2022/06/14 05:56:09;;;;;;;1.00;0.90;;;19.70;59.80;;;;;;5039524;28;43530;-62
2022/06/14 05:59:26;;;;;;;1.88;1.10;;;19.70;59.80;;;;;;5041187;28;43527;-63
2022/06/14 06:02:02;;;;;;;1.27;0.80;;;19.80;59.80;;;;;;5017504;28;43787;-63
2022/06/14 06:04:38;;;;;;;1.02;0.80;;;19.70;59.80;;;;;;5019816;28;43489;-63
2022/06/14 06:07:12;;;;;;;1.42;0.90;;;19.70;59.80;;;;;;5032647;28;43506;-63
2022/06/14 06:09:47;;;;;;;1.98;1.13;;;19.80;59.90;;;;;;5040962;28;43531;-64
2022/06/14 06:12:28;;;;;;;1.52;1.10;;;19.80;59.90;;;;;;5041358;28;43907;-63
2022/06/14 06:15:00;;;;;;;;;;;19.80;59.90;;;;;;5034121;28;44387;-64
2022/06/14 06:17:34;;;;;;;1.42;0.95;;;19.80;59.90;;;;;;5041458;28;43413;-63
2022/06/14 06:20:13;;;;;;;1.20;1.00;;;19.70;59.90;;;;;;5025279;28;43562;-62
2022/06/14 06:22:49;;;;;;;1.20;0.90;;;19.70;59.90;;;;;;5039393;28;44030;-63
2022/06/14 06:25:25;;;;;;;1.20;0.90;;;19.80;60.00;;;;;;5038421;28;43493;-63
2022/06/14 06:28:03;;;;;;;1.33;0.85;;;19.80;59.90;;;;;;5041232;28;43414;-63
2022/06/14 06:30:43;;;;;;;1.00;0.82;;;19.80;59.90;;;;;;5042131;28;43522;-62
2022/06/14 06:33:15;;;;;;;1.20;1.00;;;19.80;59.90;;;;;;5040869;28;44722;-62
2022/06/14 06:35:53;;;;;;;0.98;0.80;;;19.80;59.90;;;;;;5044281;28;43454;-62
2022/06/14 06:38:36;;;;;;;2.30;1.00;;;19.80;59.80;;;;;;5041356;28;43951;-62
2022/06/14 06:44:15;;;;;;;1.13;0.90;;;19.80;59.90;;;;;;5042091;28;43813;-63
2022/06/14 06:46:57;;;;;;;1.35;1.00;;;19.70;59.90;;;;;;5044963;28;43483;-63
2022/06/14 06:49:34;;;;;;;1.30;1.05;;;19.80;59.90;;;;;;5043094;28;43415;-62
2022/06/14 06:52:05;;;;;;;1.20;0.77;;;19.70;59.90;;;;;;5044028;28;43531;-62
2022/06/14 06:54:50;;;;;;;1.30;0.98;;;19.70;59.90;;;;;;5044744;28;44695;-62
2022/06/14 06:57:21;;;;;;;0.75;0.75;;;19.80;59.90;;;;;;5044833;28;43849;-63
2022/06/14 06:59:57;;;;;;;1.10;1.10;;;19.70;60.50;;;;;;5043450;28;43496;-62
2022/06/14 07:02:32;;;;;;;1.27;0.82;;;19.70;59.90;;;;;;5044052;28;43517;-63
2022/06/14 07:05:03;;;;;;;0.80;0.80;;;19.70;59.90;;;;;;5043213;28;44046;-62
2022/06/14 07:07:40;;;;;;;1.33;0.80;;;19.80;60.00;;;;;;5043424;28;43950;-62
2022/06/14 07:10:38;;;;;;;0.80;0.80;;;19.70;59.90;;;;;;5035219;28;43476;-62
2022/06/14 07:13:46;;;;;;;1.05;0.80;;;19.80;59.90;;;;;;5042922;28;43833;-63
2022/06/14 07:16:40;;;;;;;1.23;1.02;;;19.80;59.90;;;;;;5042250;28;44908;-62
2022/06/14 07:19:35;;;;;;;0.90;0.90;;;19.80;59.80;;;;;;5040682;28;43505;-63
2022/06/14 07:22:20;;;;;;;1.00;0.90;;;19.80;59.80;;;;;;5073579;28;43442;-63
2022/06/14 07:24:53;;;;;;;1.50;1.00;;;19.80;59.80;;;;;;5042172;28;43527;-63
2022/06/14 07:27:53;;;;;;;1.48;1.00;;;19.80;59.70;;;;;;5042807;28;43887;-63
2022/06/14 07:30:29;;;;;;;1.17;1.08;;;19.80;59.70;;;;;;5041697;28;44039;-63
2022/06/14 07:33:00;;;;;;;1.67;1.02;;;19.90;59.80;;;;;;5042961;28;43475;-63
2022/06/14 07:35:47;;;;;;;1.23;1.10;;;19.90;59.80;;;;;;5038289;28;43527;-63
2022/06/14 07:38:24;;;;;;;1.83;1.10;;;19.90;59.70;;;;;;5040291;28;44703;-63
2022/06/14 07:41:14;;;;;;;0.95;0.90;;;19.90;59.70;;;;;;5041252;28;43490;-64
2022/06/14 07:43:54;;;;;;;1.07;0.97;;;19.90;59.70;;;;;;5041503;28;43544;-64
2022/06/14 07:46:35;;;;;;;1.50;0.88;;;19.90;59.80;;;;;;5042212;28;43597;-63
2022/06/14 07:49:40;;;;;;;1.92;1.10;;;19.90;59.70;;;;;;5041173;28;43819;-63
2022/06/14 07:52:19;;;;;;;1.40;0.73;;;19.90;59.70;;;;;;5029172;28;43735;-63
2022/06/14 07:54:51;;;;;;;1.15;0.80;;;19.90;59.60;;;;;;5041727;28;43497;-63
2022/06/14 07:57:40;;;;;;;1.35;1.00;;;19.90;59.60;;;;;;5041680;28;43525;-63
2022/06/14 08:03:23;;;;;;;1.05;0.90;;;20.00;59.70;;;;;;5041394;28;43462;-62
2022/06/14 08:05:53;;;;;;;1.25;0.90;;;20.00;59.60;;;;;;5040307;28;43364;-62
2022/06/14 08:08:29;;;;;;;1.07;0.93;;;20.00;59.60;;;;;;5041576;28;43457;-62
2022/06/14 08:11:08;;;;;;;1.15;0.90;;;20.00;59.50;;;;;;5038621;28;44034;-62
2022/06/14 08:13:48;;;;;;;1.17;0.68;;;20.00;59.60;;;;;;5041682;28;43973;-63
2022/06/14 08:16:18;;;;;;;0.80;0.80;;;20.00;59.50;;;;;;5041923;28;43615;-62
2022/06/14 08:19:04;;;;;;;1.35;1.10;;;20.00;59.50;;;;;;5039438;28;43641;-63
2022/06/14 08:21:40;;;;;;;1.13;0.98;;;20.00;59.40;;;;;;5039825;28;43754;-63
2022/06/14 08:24:27;;;;;;;0.80;0.80;;;20.00;59.40;;;;;;5041541;28;43819;-62
2022/06/14 08:27:06;;;;;;;1.40;0.80;;;20.00;59.30;;;;;;5042007;28;43512;-63
2022/06/14 08:29:55;;;;;;;0.88;0.80;;;20.10;59.30;;;;;;5073409;28;43477;-63
2022/06/14 08:32:41;;;;;;;1.10;0.80;;;20.10;59.30;;;;;;5041951;28;43800;-63
2022/06/14 08:35:24;;;;;;;1.05;0.93;;;20.10;59.30;;;;;;5041444;28;43446;-62
2022/06/14 08:38:01;;;;;;;0.80;0.70;;;20.10;59.30;;;;;;5041694;28;43407;-63
2022/06/14 08:41:23;;;;;;;0.70;0.70;;;20.10;59.30;;;;;;5040944;28;43495;-62
2022/06/14 08:43:55;;;;;;;;;;;20.10;59.20;;;;;;5030191;28;44711;-62
2022/06/14 08:46:41;;;;;;;0.70;0.70;;;20.10;59.30;;;;;;5040422;28;43467;-63
2022/06/14 08:49:15;;;;;;;1.35;1.02;;;20.10;59.30;;;;;;5040697;28;43468;-62
2022/06/14 08:51:53;;;;;;;0.77;0.70;;;20.10;59.30;;;;;;5041720;28;43386;-63
2022/06/14 08:54:47;;;;;;;0.68;0.68;;;20.10;59.30;;;;;;5042846;28;44114;-63
2022/06/14 08:57:43;;;;;;;1.13;0.75;;;20.20;59.30;;;;;;5042174;28;43907;-62
2022/06/14 09:00:31;;;;;;;1.58;1.02;;;20.20;59.30;;;;;;5036303;28;43541;-63
2022/06/14 09:03:35;;;;;;;0.80;0.80;;;20.20;59.30;;;;;;5041187;28;43475;-62
2022/06/14 09:06:38;;;;;;;0.70;0.70;;;20.10;59.30;;;;;;5042604;28;44759;-63
2022/06/14 09:09:30;;;;;;;0.70;0.70;;;20.20;59.50;;;;;;5042169;28;43416;-62
2022/06/14 09:12:01;;;;;;;1.20;1.00;;;20.20;59.40;;;;;;5042346;28;43453;-63
2022/06/14 09:14:48;;;;;;;1.20;1.00;;;20.20;59.40;;;;;;5042274;28;43506;-62
2022/06/14 09:17:37;;;;;;;1.60;1.10;;;20.20;59.40;;;;;;5036887;28;43810;-63
2022/06/14 09:20:38;;;;;;;0.68;0.68;;;20.20;59.30;;;;;;5038402;28;43942;-62
2022/06/14 09:23:18;;;;;;;0.70;0.60;;;20.20;59.30;;;;;;5031354;28;43505;-62
2022/06/14 09:26:13;;;;;;;0.77;0.70;;;20.20;59.30;;;;;;5042439;28;43536;-63
2022/06/14 09:29:11;;;;;;;0.80;0.80;;;20.20;59.30;;;;;;5041804;28;44079;-62
2022/06/14 09:31:54;;;;;;;0.77;0.77;;;20.20;59.30;;;;;;5032980;28;43723;-63
2022/06/14 09:34:48;;;;;;;0.80;0.80;;;20.20;59.30;;;;;;5033121;28;43490;-63
2022/06/14 09:37:41;;;;;;;1.20;1.00;;;20.20;59.30;;;;;;5041934;28;43578;-63
2022/06/14 09:40:40;;;;;;;0.82;0.82;;;20.20;59.30;;;;;;5040679;28;43811;-62
2022/06/14 09:43:37;;;;;;;0.77;0.77;;;20.20;59.30;;;;;;5035396;28;43973;-62
2022/06/14 09:46:35;;;;;;;1.00;0.90;;;20.20;59.30;;;;;;5038967;28;43458;-62
2022/06/14 09:49:06;;;;;;;0.80;0.75;;;20.20;59.30;;;;;;5032327;28;43520;-63
2022/06/14 09:52:05;;;;;;;1.00;0.75;;;20.30;59.40;;;;;;5042482;28;43803;-63
2022/06/14 09:54:45;;;;;;;1.42;0.95;;;20.30;59.50;;;;;;5012939;28;43952;-62
2022/06/14 09:57:36;;;;;;;0.82;0.82;;;20.30;59.30;;;;;;5042191;28;43527;-62
2022/06/14 10:00:22;;;;;;;1.08;0.70;;;20.30;59.30;;;;;;5041393;28;43546;-62
2022/06/14 10:03:14;;;;;;;0.75;0.70;;;20.30;59.40;;;;;;5041981;28;44664;-63
2022/06/14 10:06:06;;;;;;;1.10;1.00;;;20.30;59.40;;;;;;5044372;28;43456;-63
2022/06/14 10:08:48;;;;;;;;;;;20.30;59.30;;;;;;5035326;28;43787;-62
2022/06/14 10:11:35;;;;;;;1.85;1.00;;;20.30;59.40;;;;;;5043837;28;43454;-62
2022/06/14 10:14:30;;;;;;;0.98;0.85;;;20.30;59.30;;;;;;5045011;28;44740;-62
2022/06/14 10:17:09;;;;;;;0.80;0.80;;;20.40;59.40;;;;;;5045508;28;43431;-63
2022/06/14 10:19:58;;;;;;;1.42;0.80;;;20.40;59.60;;;;;;5039880;28;43510;-63
2022/06/14 10:23:22;;;;;;;1.85;0.90;;;20.40;59.50;;;;;;5077414;28;43495;-63
2022/06/14 10:29:45;;;;;;;1.13;1.00;;;20.40;59.60;;;;;;5013618;28;44196;-62
2022/06/14 10:32:31;;;;;;;1.70;0.90;;;20.40;59.60;;;;;;5006913;28;43496;-63
2022/06/14 10:35:19;;;;;;;2.15;0.90;;;20.40;60.20;;;;;;5029802;28;43509;-63
2022/06/14 10:38:12;;;;;;;1.00;0.77;;;20.40;59.80;;;;;;5045628;28;44289;-62
2022/06/14 10:40:55;;;;;;;1.23;0.82;;;20.40;59.80;;;;;;5044354;28;43532;-62
2022/06/14 10:43:48;;;;;;;1.08;0.88;;;20.40;59.70;;;;;;5044379;28;43454;-63
2022/06/14 10:46:24;;;;;;;1.02;0.88;;;20.40;59.80;;;;;;5043311;28;43575;-62
2022/06/14 10:49:09;;;;;;;1.25;1.00;;;20.50;59.80;;;;;;5058273;28;45889;-63
2022/06/14 10:52:08;;;;;;;1.77;0.98;;;20.50;59.80;;;;;;5073661;28;43570;-63
2022/06/14 10:54:58;;;;;;;1.02;0.90;;;20.50;59.90;;;;;;5043070;28;43478;-62
2022/06/14 10:57:47;;;;;;;1.30;0.95;;;20.50;59.90;;;;;;5044920;28;43364;-62
2022/06/14 11:00:33;;;;;;;1.08;0.90;;;20.60;60.00;;;;;;5037965;28;43824;-63
2022/06/14 11:03:20;;;;;;;0.80;0.80;;;20.60;59.90;;;;;;5042806;28;43518;-61
2022/06/14 11:06:04;;;;;;;1.52;1.17;;;20.60;60.00;;;;;;5044590;28;43422;-62
2022/06/14 11:08:41;;;;;;;1.15;1.05;;;20.60;59.90;;;;;;5040910;28;43431;-62
2022/06/14 11:11:34;;;;;;;1.15;0.88;;;20.60;59.90;;;;;;5051689;28;44045;-62
2022/06/14 11:14:39;;;;;;;2.05;1.05;;;20.60;60.00;;;;;;5039308;28;43932;-62
2022/06/14 11:17:25;;;;;;;2.17;1.00;;;20.60;60.10;;;;;;5034724;28;43588;-62
2022/06/14 11:20:14;;;;;;;0.95;0.70;;;20.60;60.00;;;;;;5036977;28;43596;-63
2022/06/14 11:22:58;;;;;;;1.90;1.27;;;20.60;60.00;;;;;;5041880;28;44062;-63
2022/06/14 11:25:38;;;;;;;1.25;1.00;;;20.60;59.90;;;;;;5043424;28;43459;-62
2022/06/14 11:28:35;;;;;;;1.33;0.70;;;20.70;59.90;;;;;;5044256;28;43427;-63
2022/06/14 11:31:15;;;;;;;1.58;0.98;;;20.70;59.90;;;;;;5044533;28;43621;-62
2022/06/14 11:34:08;;;;;;;1.05;0.90;;;20.70;60.00;;;;;;5043296;28;43784;-63
2022/06/14 11:36:54;;;;;;;1.08;0.88;;;20.70;60.00;;;;;;5042226;28;43419;-63
2022/06/14 11:39:44;;;;;;;0.70;0.70;;;20.70;60.00;;;;;;5036475;28;43461;-63
2022/06/14 11:42:22;;;;;;;1.50;0.90;;;20.80;60.00;;;;;;5043495;28;43559;-63
2022/06/14 11:45:23;;;;;;;1.10;1.00;;;20.80;60.00;;;;;;5043644;28;44708;-62
2022/06/14 11:48:07;;;;;;;0.95;0.85;;;20.80;60.00;;;;;;5036361;28;43469;-63
2022/06/14 11:51:01;;;;;;;1.05;0.95;;;20.80;59.90;;;;;;5041609;28;43531;-63
2022/06/14 11:53:31;;;;;;;2.08;1.10;;;20.80;59.80;;;;;;5040653;28;43669;-63
2022/06/14 11:56:11;;;;;;;1.10;0.90;;;20.80;59.70;;;;;;5041642;28;44089;-63
2022/06/14 11:59:11;;;;;;;1.48;0.80;;;20.90;59.70;;;;;;5042009;28;43502;-63
2022/06/14 12:01:52;;;;;;;1.25;0.82;;;20.90;59.60;;;;;;5041085;28;43597;-63
2022/06/14 12:04:28;;;;;;;1.20;1.10;;;20.90;59.60;;;;;;5041425;28;43625;-63
2022/06/14 12:07:26;;;;;;;1.23;0.85;;;20.90;59.80;;;;;;5042400;28;44866;-63
2022/06/14 12:10:12;;;;;;;0.80;0.80;;;20.90;59.70;;;;;;5019147;28;44130;-62
2022/06/14 12:12:46;;;;;;;1.17;0.65;;;20.80;59.60;;;;;;5040823;28;43640;-62
2022/06/14 12:15:28;;;;;;;1.20;0.90;;;20.80;59.60;;;;;;5041937;28;43410;-62
2022/06/14 12:18:01;;;;;;;0.90;0.77;;;20.90;59.70;;;;;;5042053;28;44082;-61
2022/06/14 12:20:35;;;;;;;0.80;0.80;;;20.90;59.70;;;;;;5039438;28;43430;-62
2022/06/14 12:23:13;;;;;;;1.27;1.02;;;20.90;59.70;;;;;;5074204;28;43483;-62
2022/06/14 12:26:34;;;;;;;0.90;0.90;;;20.90;59.60;;;;;;5041776;28;43444;-62
2022/06/14 12:29:29;;;;;;;0.98;0.90;;;21.00;59.60;;;;;;5040028;28;44054;-61
2022/06/14 12:32:22;;;;;;;0.80;0.80;;;20.90;59.50;;;;;;5041223;28;44291;-61
2022/06/14 12:34:55;;;;;;;1.08;0.70;;;21.00;60.00;;;;;;5041095;28;44059;-62
2022/06/14 12:37:48;;;;;;;0.93;0.80;;;21.00;59.70;;;;;;5040561;28;43570;-62
2022/06/14 12:40:36;;;;;;;0.85;0.75;;;21.00;59.70;;;;;;5041224;28;43999;-62
2022/06/14 12:43:29;;;;;;;0.75;0.70;;;20.90;59.70;;;;;;5039217;28;43556;-61
2022/06/14 12:46:11;;;;;;;1.25;0.95;;;20.90;59.70;;;;;;5042555;28;43534;-62
2022/06/14 12:48:48;;;;;;;1.05;0.80;;;20.90;59.70;;;;;;5041296;28;43579;-61
2022/06/14 12:52:24;;;;;;;0.90;0.65;;;20.90;59.80;;;;;;5038820;28;43837;-62
2022/06/14 12:55:04;;;;;;;0.82;0.80;;;20.90;59.90;;;;;;4980689;28;43667;-62
2022/06/14 12:57:44;;;;;;;0.93;0.73;;;20.90;59.90;;;;;;5000281;28;43484;-61
2022/06/14 13:00:50;;;;;;;0.82;0.82;;;20.90;60.00;;;;;;5032979;28;43557;-61
2022/06/14 13:03:20;;;;;;;1.75;0.70;;;20.90;59.90;;;;;;4962957;28;44412;-61
2022/06/14 13:05:57;;;;;;;0.90;0.90;;;20.90;60.00;;;;;;5028737;28;43440;-61
2022/06/14 13:08:46;;;;;;;0.82;0.82;;;20.90;59.90;;;;;;5041596;28;43478;-62
2022/06/14 13:11:34;;;;;;;1.50;0.98;;;20.90;59.90;;;;;;5040951;28;43500;-62
2022/06/14 13:14:18;;;;;;;0.90;0.90;;;20.90;59.90;;;;;;5041443;28;43850;-61
2022/06/14 13:17:13;;;;;;;0.70;0.70;;;20.90;60.60;;;;;;5042287;28;43466;-62
2022/06/14 13:20:03;;;;;;;0.50;0.50;;;20.90;60.00;;;;;;5040630;28;43385;-61
2022/06/14 13:23:02;;;;;;;0.70;0.70;;;20.90;59.90;;;;;;5041598;28;43562;-62
2022/06/14 13:26:01;;;;;;;0.80;0.80;;;20.90;59.90;;;;;;5050493;28;44065;-62
2022/06/14 13:28:30;;;;;;;1.00;0.90;;;20.90;59.90;;;;;;5040283;28;43570;-61
2022/06/14 13:31:24;;;;;;;1.50;1.00;;;20.90;59.90;;;;;;5039853;28;43494;-61
2022/06/14 13:34:30;;;;;;;0.73;0.70;;;20.90;59.90;;;;;;5042186;28;44104;-62
2022/06/14 13:37:05;;;;;;;0.60;0.60;;;20.90;60.00;;;;;;5018440;28;43885;-62
2022/06/14 13:39:52;;;;;;;1.27;1.15;;;20.80;60.00;;;;;;5038425;28;43462;-61
2022/06/14 13:42:22;;;;;;;0.88;0.80;;;20.80;60.00;;;;;;5045088;28;43542;-62
2022/06/14 13:45:21;;;;;;;1.20;1.08;;;20.90;60.00;;;;;;5045856;28;44082;-62
2022/06/14 13:48:18;;;;;;;1.02;0.98;;;20.90;60.00;;;;;;5030692;28;44299;-62
2022/06/14 13:50:48;;;;;;;0.90;0.90;;;20.90;60.00;;;;;;5036644;28;43950;-62
2022/06/14 13:53:37;;;;;;;0.80;0.80;;;20.80;60.00;;;;;;5043839;28;43436;-61
2022/06/14 13:56:33;;;;;;;0.85;0.75;;;20.90;60.00;;;;;;5044601;28;43538;-61
2022/06/14 13:59:06;;;;;;;0.70;0.70;;;20.90;60.00;;;;;;5038245;28;44031;-61
2022/06/14 14:01:44;;;;;;;0.95;0.88;;;20.90;60.00;;;;;;5044849;28;43402;-61
2022/06/14 14:04:33;;;;;;;0.98;0.93;;;20.90;59.90;;;;;;5038042;28;43510;-61
2022/06/14 14:07:26;;;;;;;0.70;0.70;;;20.90;60.00;;;;;;5038137;28;43546;-61
2022/06/14 14:10:14;;;;;;;1.00;1.00;;;20.90;59.90;;;;;;5036458;28;44322;-61
2022/06/14 14:12:55;;;;;;;0.90;0.90;;;20.90;59.90;;;;;;5077087;28;43537;-62
2022/06/14 14:15:45;;;;;;;1.10;0.90;;;20.90;60.00;;;;;;5044992;28;43447;-62
2022/06/14 14:18:18;;;;;;;1.05;0.95;;;20.90;60.10;;;;;;5034703;28;43511;-63
2022/06/14 14:20:59;;;;;;;0.85;0.80;;;20.90;60.00;;;;;;5043559;28;43824;-62
2022/06/14 14:24:07;;;;;;;1.40;1.20;;;20.90;59.90;;;;;;5043218;28;44080;-62
2022/06/14 14:26:44;;;;;;;1.52;0.98;;;20.90;60.10;;;;;;5037016;28;43434;-61